sensor_id;sensor_type;location;lat;lon;timestamp;pressure;altitude;pressure_sealevel;temperature;humidity
6423;BME280;3244;42.708;23.288;2023-02-22T00:00:20;95032.09;;;9.47;48.95
6423;BME280;3244;42.708;23.288;2023-02-22T00:02:54;95025.75;;;9.34;49.41
6423;BME280;3244;42.708;23.288;2023-02-22T00:05:26;95014.38;;;9.18;49.58
6423;BME280;3244;42.708;23.288;2023-02-22T00:07:54;95013.72;;;9.11;49.60
6423;BME280;3244;42.708;23.288;2023-02-22T00:10:22;95034.56;;;9.21;49.40
6423;BME280;3244;42.708;23.288;2023-02-22T00:12:52;95029.56;;;9.18;49.53
6423;BME280;3244;42.708;23.288;2023-02-22T00:15:21;95033.97;;;9.13;49.90
6423;BME280;3244;42.708;23.288;2023-02-22T00:17:48;95034.84;;;9.12;50.50
6423;BME280;3244;42.708;23.288;2023-02-22T00:20:15;95034.94;;;9.09;50.02
6423;BME280;3244;42.708;23.288;2023-02-22T00:22:45;95029.00;;;9.10;50.57
6423;BME280;3244;42.708;23.288;2023-02-22T00:25:14;95029.78;;;9.12;49.96
6423;BME280;3244;42.708;23.288;2023-02-22T00:27:42;95032.41;;;9.09;50.46
6423;BME280;3244;42.708;23.288;2023-02-22T00:30:13;95024.94;;;9.03;50.23
6423;BME280;3244;42.708;23.288;2023-02-22T00:32:43;95026.63;;;9.04;50.24
6423;BME280;3244;42.708;23.288;2023-02-22T00:35:11;95018.31;;;8.99;51.11
6423;BME280;3244;42.708;23.288;2023-02-22T00:37:38;95028.44;;;8.99;50.97
6423;BME280;3244;42.708;23.288;2023-02-22T00:40:07;95019.75;;;9.07;50.84
6423;BME280;3244;42.708;23.288;2023-02-22T00:42:34;95024.78;;;9.09;51.51
6423;BME280;3244;42.708;23.288;2023-02-22T00:45:01;95018.97;;;9.05;50.96
6423;BME280;3244;42.708;23.288;2023-02-22T00:47:29;95010.63;;;9.02;51.00
6423;BME280;3244;42.708;23.288;2023-02-22T00:49:56;95017.59;;;8.94;51.03
6423;BME280;3244;42.708;23.288;2023-02-22T00:52:23;95012.53;;;8.94;51.83
6423;BME280;3244;42.708;23.288;2023-02-22T00:54:49;95006.13;;;8.82;51.63
6423;BME280;3244;42.708;23.288;2023-02-22T00:57:16;94996.97;;;8.76;52.40
6423;BME280;3244;42.708;23.288;2023-02-22T00:59:43;95000.41;;;8.74;51.95
6423;BME280;3244;42.708;23.288;2023-02-22T01:02:11;95004.41;;;8.82;52.33
6423;BME280;3244;42.708;23.288;2023-02-22T01:04:39;95006.34;;;8.73;51.63
6423;BME280;3244;42.708;23.288;2023-02-22T01:07:06;95004.63;;;8.75;52.43
6423;BME280;3244;42.708;23.288;2023-02-22T01:09:33;95001.97;;;8.79;51.65
6423;BME280;3244;42.708;23.288;2023-02-22T01:12:00;95005.44;;;8.75;52.42
6423;BME280;3244;42.708;23.288;2023-02-22T01:14:27;94993.09;;;8.65;52.73
6423;BME280;3244;42.708;23.288;2023-02-22T01:16:55;94995.69;;;8.62;52.89
6423;BME280;3244;42.708;23.288;2023-02-22T01:19:24;94994.06;;;8.59;52.72
6423;BME280;3244;42.708;23.288;2023-02-22T01:21:52;94993.13;;;8.63;52.62
6423;BME280;3244;42.708;23.288;2023-02-22T01:24:19;94989.00;;;8.59;52.11
6423;BME280;3244;42.708;23.288;2023-02-22T01:26:50;94994.00;;;8.62;52.82
6423;BME280;3244;42.708;23.288;2023-02-22T01:29:18;94980.94;;;8.45;52.98
6423;BME280;3244;42.708;23.288;2023-02-22T01:31:51;94988.59;;;8.42;53.60
6423;BME280;3244;42.708;23.288;2023-02-22T01:34:19;94986.25;;;8.36;53.95
6423;BME280;3244;42.708;23.288;2023-02-22T01:36:46;94985.69;;;8.23;54.57
6423;BME280;3244;42.708;23.288;2023-02-22T01:39:14;94973.41;;;8.09;54.41
6423;BME280;3244;42.708;23.288;2023-02-22T01:41:42;94996.19;;;8.09;54.50
6423;BME280;3244;42.708;23.288;2023-02-22T01:44:27;94990.41;;;8.04;53.75
6423;BME280;3244;42.708;23.288;2023-02-22T01:46:54;94980.50;;;7.95;54.04
6423;BME280;3244;42.708;23.288;2023-02-22T01:49:23;94989.75;;;7.96;54.51
6423;BME280;3244;42.708;23.288;2023-02-22T01:51:53;94994.88;;;7.93;54.62
6423;BME280;3244;42.708;23.288;2023-02-22T01:54:25;94985.72;;;7.89;54.26
6423;BME280;3244;42.708;23.288;2023-02-22T01:56:59;94994.13;;;7.91;54.79
6423;BME280;3244;42.708;23.288;2023-02-22T01:59:32;94992.34;;;7.93;54.47
6423;BME280;3244;42.708;23.288;2023-02-22T02:02:00;94992.47;;;7.90;54.92
6423;BME280;3244;42.708;23.288;2023-02-22T02:04:29;95001.03;;;7.84;54.70
6423;BME280;3244;42.708;23.288;2023-02-22T02:06:59;95003.06;;;7.69;55.41
6423;BME280;3244;42.708;23.288;2023-02-22T02:09:32;94996.19;;;7.74;55.14
6423;BME280;3244;42.708;23.288;2023-02-22T02:12:01;94992.81;;;7.75;55.44
6423;BME280;3244;42.708;23.288;2023-02-22T02:14:30;95001.31;;;7.71;55.20
6423;BME280;3244;42.708;23.288;2023-02-22T02:16:57;95001.50;;;7.65;55.95
6423;BME280;3244;42.708;23.288;2023-02-22T02:19:33;95003.16;;;7.66;55.18
6423;BME280;3244;42.708;23.288;2023-02-22T02:22:29;94999.66;;;7.70;55.10
6423;BME280;3244;42.708;23.288;2023-02-22T02:25:23;94996.44;;;7.65;54.96
6423;BME280;3244;42.708;23.288;2023-02-22T02:28:15;94997.34;;;7.62;54.83
6423;BME280;3244;42.708;23.288;2023-02-22T02:31:18;95004.00;;;7.66;55.73
6423;BME280;3244;42.708;23.288;2023-02-22T02:33:50;95003.06;;;7.69;55.57
6423;BME280;3244;42.708;23.288;2023-02-22T02:36:27;95011.59;;;7.65;55.41
6423;BME280;3244;42.708;23.288;2023-02-22T02:39:01;95013.28;;;7.66;55.13
6423;BME280;3244;42.708;23.288;2023-02-22T02:41:33;95013.47;;;7.57;55.53
6423;BME280;3244;42.708;23.288;2023-02-22T02:44:04;95013.56;;;7.52;55.51
6423;BME280;3244;42.708;23.288;2023-02-22T02:46:39;95011.13;;;7.47;55.56
6423;BME280;3244;42.708;23.288;2023-02-22T02:49:14;94997.06;;;7.37;55.84
6423;BME280;3244;42.708;23.288;2023-02-22T02:51:45;95010.22;;;7.51;55.91
6423;BME280;3244;42.708;23.288;2023-02-22T02:54:15;95017.91;;;7.47;55.88
6423;BME280;3244;42.708;23.288;2023-02-22T02:56:44;95015.41;;;7.45;55.58
6423;BME280;3244;42.708;23.288;2023-02-22T02:59:24;95017.97;;;7.44;55.76
6423;BME280;3244;42.708;23.288;2023-02-22T03:02:00;95016.41;;;7.38;56.52
6423;BME280;3244;42.708;23.288;2023-02-22T03:04:50;95019.13;;;7.29;56.16
6423;BME280;3244;42.708;23.288;2023-02-22T03:07:32;95017.66;;;7.19;56.82
6423;BME280;3244;42.708;23.288;2023-02-22T03:10:17;95026.06;;;7.20;56.33
6423;BME280;3244;42.708;23.288;2023-02-22T03:12:51;95027.81;;;7.18;56.44
6423;BME280;3244;42.708;23.288;2023-02-22T03:15:31;95022.66;;;7.22;56.72
6423;BME280;3244;42.708;23.288;2023-02-22T03:18:03;95015.88;;;7.24;56.73
6423;BME280;3244;42.708;23.288;2023-02-22T03:20:40;95019.31;;;7.20;56.44
6423;BME280;3244;42.708;23.288;2023-02-22T03:23:15;95020.09;;;7.24;56.19
6423;BME280;3244;42.708;23.288;2023-02-22T03:25:47;95011.69;;;7.23;57.06
6423;BME280;3244;42.708;23.288;2023-02-22T03:28:17;95015.81;;;7.27;57.46
6423;BME280;3244;42.708;23.288;2023-02-22T03:30:48;95010.56;;;7.36;56.57
6423;BME280;3244;42.708;23.288;2023-02-22T03:33:19;95015.63;;;7.36;57.16
6423;BME280;3244;42.708;23.288;2023-02-22T03:35:56;95011.34;;;7.40;57.18
6423;BME280;3244;42.708;23.288;2023-02-22T03:38:26;95009.16;;;7.62;56.48
6423;BME280;3244;42.708;23.288;2023-02-22T03:40:58;95015.19;;;7.55;56.73
6423;BME280;3244;42.708;23.288;2023-02-22T03:43:30;95013.53;;;7.54;57.02
6423;BME280;3244;42.708;23.288;2023-02-22T03:45:59;95016.81;;;7.59;56.50
6423;BME280;3244;42.708;23.288;2023-02-22T03:48:35;95010.84;;;7.61;56.73
6423;BME280;3244;42.708;23.288;2023-02-22T03:51:05;95016.81;;;7.59;56.75
6423;BME280;3244;42.708;23.288;2023-02-22T03:53:33;95025.19;;;7.61;57.05
6423;BME280;3244;42.708;23.288;2023-02-22T03:56:03;95010.94;;;7.57;56.97
6423;BME280;3244;42.708;23.288;2023-02-22T03:58:32;95020.25;;;7.55;57.07
6423;BME280;3244;42.708;23.288;2023-02-22T04:01:00;95009.38;;;7.51;57.46
6423;BME280;3244;42.708;23.288;2023-02-22T04:03:28;95021.25;;;7.47;56.94
6423;BME280;3244;42.708;23.288;2023-02-22T04:05:54;95019.50;;;7.51;56.77
6423;BME280;3244;42.708;23.288;2023-02-22T04:08:22;95020.31;;;7.51;57.16
6423;BME280;3244;42.708;23.288;2023-02-22T04:10:49;95022.13;;;7.46;57.55
6423;BME280;3244;42.708;23.288;2023-02-22T04:13:16;95011.13;;;7.47;57.45
6423;BME280;3244;42.708;23.288;2023-02-22T04:15:43;95023.28;;;7.32;57.99
6423;BME280;3244;42.708;23.288;2023-02-22T04:18:10;95014.19;;;7.25;57.23
6423;BME280;3244;42.708;23.288;2023-02-22T04:20:36;95017.75;;;7.16;58.13
6423;BME280;3244;42.708;23.288;2023-02-22T04:23:03;95024.53;;;7.14;57.97
6423;BME280;3244;42.708;23.288;2023-02-22T04:25:32;95026.19;;;7.15;58.22
6423;BME280;3244;42.708;23.288;2023-02-22T04:27:58;95022.94;;;7.10;57.75
6423;BME280;3244;42.708;23.288;2023-02-22T04:30:25;95026.47;;;7.01;58.40
6423;BME280;3244;42.708;23.288;2023-02-22T04:32:54;95021.66;;;6.91;58.49
6423;BME280;3244;42.708;23.288;2023-02-22T04:35:21;95028.41;;;6.89;58.31
6423;BME280;3244;42.708;23.288;2023-02-22T04:37:48;95032.69;;;6.85;58.54
6423;BME280;3244;42.708;23.288;2023-02-22T04:40:15;95027.88;;;6.73;58.97
6423;BME280;3244;42.708;23.288;2023-02-22T04:42:44;95026.22;;;6.70;59.09
6423;BME280;3244;42.708;23.288;2023-02-22T04:45:11;95032.03;;;6.75;58.49
6423;BME280;3244;42.708;23.288;2023-02-22T04:47:38;95030.38;;;6.73;59.24
6423;BME280;3244;42.708;23.288;2023-02-22T04:50:06;95032.09;;;6.72;58.79
6423;BME280;3244;42.708;23.288;2023-02-22T04:52:33;95017.19;;;6.60;58.85
6423;BME280;3244;42.708;23.288;2023-02-22T04:55:00;95021.34;;;6.63;58.90
6423;BME280;3244;42.708;23.288;2023-02-22T04:57:27;95019.66;;;6.63;58.72
6423;BME280;3244;42.708;23.288;2023-02-22T04:59:55;95025.50;;;6.65;59.16
6423;BME280;3244;42.708;23.288;2023-02-22T05:02:22;95030.56;;;6.65;58.55
6423;BME280;3244;42.708;23.288;2023-02-22T05:04:48;95030.56;;;6.65;58.78
6423;BME280;3244;42.708;23.288;2023-02-22T05:07:15;95039.88;;;6.62;58.52
6423;BME280;3244;42.708;23.288;2023-02-22T05:09:42;95038.34;;;6.53;58.83
6423;BME280;3244;42.708;23.288;2023-02-22T05:12:09;95034.34;;;6.43;58.67
6423;BME280;3244;42.708;23.288;2023-02-22T05:14:36;95040.28;;;6.40;59.06
6423;BME280;3244;42.708;23.288;2023-02-22T05:17:04;95044.25;;;6.52;59.00
6423;BME280;3244;42.708;23.288;2023-02-22T05:19:30;95031.88;;;6.40;59.15
6423;BME280;3244;42.708;23.288;2023-02-22T05:21:57;95055.94;;;6.58;59.12
6423;BME280;3244;42.708;23.288;2023-02-22T05:24:24;95054.34;;;6.52;59.63
6423;BME280;3244;42.708;23.288;2023-02-22T05:26:51;95047.88;;;6.39;59.62
6423;BME280;3244;42.708;23.288;2023-02-22T05:29:18;95049.59;;;6.37;59.13
6423;BME280;3244;42.708;23.288;2023-02-22T05:31:45;95057.91;;;6.42;59.65
6423;BME280;3244;42.708;23.288;2023-02-22T05:34:14;95050.41;;;6.39;59.49
6423;BME280;3244;42.708;23.288;2023-02-22T05:36:41;95066.25;;;6.44;59.40
6423;BME280;3244;42.708;23.288;2023-02-22T05:39:07;95061.94;;;6.51;59.43
6423;BME280;3244;42.708;23.288;2023-02-22T05:41:34;95068.50;;;6.62;58.73
6423;BME280;3244;42.708;23.288;2023-02-22T05:44:01;95074.19;;;6.72;58.90
6423;BME280;3244;42.708;23.288;2023-02-22T05:46:28;95051.59;;;6.66;58.89
6423;BME280;3244;42.708;23.288;2023-02-22T05:48:55;95073.63;;;7.01;57.70
6423;BME280;3244;42.708;23.288;2023-02-22T05:51:23;95070.78;;;7.93;55.95
6423;BME280;3244;42.708;23.288;2023-02-22T05:53:50;95069.38;;;9.73;52.30
6423;BME280;3244;42.708;23.288;2023-02-22T05:56:20;95068.53;;;11.95;46.12
6423;BME280;3244;42.708;23.288;2023-02-22T05:58:47;95064.09;;;13.80;41.47
6423;BME280;3244;42.708;23.288;2023-02-22T06:01:14;95068.09;;;15.25;38.10
6423;BME280;3244;42.708;23.288;2023-02-22T06:03:40;95062.69;;;16.10;36.47
6423;BME280;3244;42.708;23.288;2023-02-22T06:06:07;95057.13;;;16.79;35.25
6423;BME280;3244;42.708;23.288;2023-02-22T06:08:36;95074.69;;;17.72;33.56
6423;BME280;3244;42.708;23.288;2023-02-22T06:11:03;95058.03;;;18.45;32.08
6423;BME280;3244;42.708;23.288;2023-02-22T06:13:29;95065.41;;;17.69;32.75
6423;BME280;3244;42.708;23.288;2023-02-22T06:15:56;95066.50;;;15.87;35.02
6423;BME280;3244;42.708;23.288;2023-02-22T06:18:23;95073.13;;;14.23;37.83
6423;BME280;3244;42.708;23.288;2023-02-22T06:20:51;95071.94;;;12.99;40.87
6423;BME280;3244;42.708;23.288;2023-02-22T06:23:18;95082.16;;;12.58;42.28
6423;BME280;3244;42.708;23.288;2023-02-22T06:25:46;95073.63;;;13.76;41.28
6423;BME280;3244;42.708;23.288;2023-02-22T06:28:13;95060.56;;;16.48;35.82
6423;BME280;3244;42.708;23.288;2023-02-22T06:30:41;95057.03;;;19.00;31.46
6423;BME280;3244;42.708;23.288;2023-02-22T06:33:08;95036.28;;;20.73;28.62
6423;BME280;3244;42.708;23.288;2023-02-22T06:35:34;95047.44;;;22.30;26.58
6423;BME280;3244;42.708;23.288;2023-02-22T06:38:01;95048.09;;;23.37;25.19
6423;BME280;3244;42.708;23.288;2023-02-22T06:40:28;95053.88;;;23.71;23.82
6423;BME280;3244;42.708;23.288;2023-02-22T06:42:57;95061.13;;;23.47;24.46
6423;BME280;3244;42.708;23.288;2023-02-22T06:45:24;95058.06;;;23.63;24.17
6423;BME280;3244;42.708;23.288;2023-02-22T06:47:51;95048.72;;;24.31;23.00
6423;BME280;3244;42.708;23.288;2023-02-22T06:50:20;95055.03;;;24.86;22.89
6423;BME280;3244;42.708;23.288;2023-02-22T06:52:47;95062.97;;;24.94;22.57
6423;BME280;3244;42.708;23.288;2023-02-22T06:55:19;95051.47;;;25.16;22.03
6423;BME280;3244;42.708;23.288;2023-02-22T06:57:46;95053.13;;;24.40;22.74
6423;BME280;3244;42.708;23.288;2023-02-22T07:00:16;95041.25;;;24.07;23.24
6423;BME280;3244;42.708;23.288;2023-02-22T07:02:43;95042.88;;;23.89;23.40
6423;BME280;3244;42.708;23.288;2023-02-22T07:05:10;95045.31;;;23.50;23.82
6423;BME280;3244;42.708;23.288;2023-02-22T07:07:37;95052.63;;;23.15;24.13
6423;BME280;3244;42.708;23.288;2023-02-22T07:10:05;95055.34;;;23.13;24.08
6423;BME280;3244;42.708;23.288;2023-02-22T07:12:32;95052.81;;;23.02;24.30
6423;BME280;3244;42.708;23.288;2023-02-22T07:14:59;95059.97;;;23.61;23.27
6423;BME280;3244;42.708;23.288;2023-02-22T07:17:27;95051.63;;;24.47;22.84
6423;BME280;3244;42.708;23.288;2023-02-22T07:19:54;95045.16;;;24.80;22.11
6423;BME280;3244;42.708;23.288;2023-02-22T07:22:21;95041.88;;;24.78;22.29
6423;BME280;3244;42.708;23.288;2023-02-22T07:24:48;95052.44;;;24.48;22.44
6423;BME280;3244;42.708;23.288;2023-02-22T07:27:15;95050.50;;;24.30;22.86
6423;BME280;3244;42.708;23.288;2023-02-22T07:29:42;95050.22;;;23.84;23.00
6423;BME280;3244;42.708;23.288;2023-02-22T07:32:09;95050.16;;;23.13;23.75
6423;BME280;3244;42.708;23.288;2023-02-22T07:34:37;95042.03;;;22.65;24.30
6423;BME280;3244;42.708;23.288;2023-02-22T07:37:03;95043.28;;;22.06;24.96
6423;BME280;3244;42.708;23.288;2023-02-22T07:39:30;95041.66;;;22.37;25.06
6423;BME280;3244;42.708;23.288;2023-02-22T07:41:58;95037.06;;;22.73;24.80
6423;BME280;3244;42.708;23.288;2023-02-22T07:44:25;95042.16;;;22.63;24.81
6423;BME280;3244;42.708;23.288;2023-02-22T07:46:52;95041.81;;;23.10;24.52
6423;BME280;3244;42.708;23.288;2023-02-22T07:49:19;95042.53;;;23.42;23.85
6423;BME280;3244;42.708;23.288;2023-02-22T07:51:47;95039.56;;;24.36;22.98
6423;BME280;3244;42.708;23.288;2023-02-22T07:54:14;95025.19;;;24.90;22.65
6423;BME280;3244;42.708;23.288;2023-02-22T07:56:44;95037.38;;;25.65;21.79
6423;BME280;3244;42.708;23.288;2023-02-22T07:59:12;95029.78;;;26.80;20.57
6423;BME280;3244;42.708;23.288;2023-02-22T08:01:39;95032.22;;;27.51;20.43
6423;BME280;3244;42.708;23.288;2023-02-22T08:04:06;95028.13;;;27.66;19.91
6423;BME280;3244;42.708;23.288;2023-02-22T08:06:33;95024.63;;;27.58;19.87
6423;BME280;3244;42.708;23.288;2023-02-22T08:09:01;95024.31;;;28.61;19.39
6423;BME280;3244;42.708;23.288;2023-02-22T08:11:28;95020.81;;;29.66;18.18
6423;BME280;3244;42.708;23.288;2023-02-22T08:13:54;95018.19;;;30.36;17.96
6423;BME280;3244;42.708;23.288;2023-02-22T08:16:21;95018.94;;;30.45;17.36
6423;BME280;3244;42.708;23.288;2023-02-22T08:18:48;95019.00;;;30.14;17.78
6423;BME280;3244;42.708;23.288;2023-02-22T08:21:15;95015.09;;;29.63;18.41
6423;BME280;3244;42.708;23.288;2023-02-22T08:23:42;95017.22;;;29.51;18.04
6423;BME280;3244;42.708;23.288;2023-02-22T08:26:11;95018.75;;;29.93;17.93
6423;BME280;3244;42.708;23.288;2023-02-22T08:28:40;95009.34;;;30.37;17.47
6423;BME280;3244;42.708;23.288;2023-02-22T08:31:07;95016.75;;;31.02;17.10
6423;BME280;3244;42.708;23.288;2023-02-22T08:33:34;95008.13;;;30.71;17.05
6423;BME280;3244;42.708;23.288;2023-02-22T08:36:01;95004.50;;;31.18;16.82
6423;BME280;3244;42.708;23.288;2023-02-22T08:38:29;95014.00;;;32.07;16.48
6423;BME280;3244;42.708;23.288;2023-02-22T08:40:57;95001.22;;;32.76;16.00
6423;BME280;3244;42.708;23.288;2023-02-22T08:43:25;95002.34;;;32.88;15.96
6423;BME280;3244;42.708;23.288;2023-02-22T08:45:52;95004.56;;;32.70;15.70
6423;BME280;3244;42.708;23.288;2023-02-22T08:48:19;94997.38;;;32.36;16.06
6423;BME280;3244;42.708;23.288;2023-02-22T08:50:46;95000.47;;;31.89;16.40
6423;BME280;3244;42.708;23.288;2023-02-22T08:53:14;95006.41;;;31.53;17.08
6423;BME280;3244;42.708;23.288;2023-02-22T08:55:42;95004.16;;;31.50;17.20
6423;BME280;3244;42.708;23.288;2023-02-22T08:58:09;95004.63;;;31.39;17.24
6423;BME280;3244;42.708;23.288;2023-02-22T09:00:38;94994.28;;;31.00;17.40
6423;BME280;3244;42.708;23.288;2023-02-22T09:03:07;94994.81;;;30.50;17.55
6423;BME280;3244;42.708;23.288;2023-02-22T09:05:34;94992.00;;;29.58;18.94
6423;BME280;3244;42.708;23.288;2023-02-22T09:08:01;94996.53;;;28.68;19.85
6423;BME280;3244;42.708;23.288;2023-02-22T09:10:30;95000.44;;;27.56;20.65
6423;BME280;3244;42.708;23.288;2023-02-22T09:12:58;94989.97;;;26.34;21.49
6423;BME280;3244;42.708;23.288;2023-02-22T09:15:25;94987.09;;;25.65;22.92
6423;BME280;3244;42.708;23.288;2023-02-22T09:17:54;94987.94;;;25.19;23.43
6423;BME280;3244;42.708;23.288;2023-02-22T09:20:22;94989.06;;;24.87;23.80
6423;BME280;3244;42.708;23.288;2023-02-22T09:22:50;94987.00;;;23.85;24.48
6423;BME280;3244;42.708;23.288;2023-02-22T09:25:18;94987.63;;;23.06;25.88
6423;BME280;3244;42.708;23.288;2023-02-22T09:27:46;94982.25;;;22.57;26.39
6423;BME280;3244;42.708;23.288;2023-02-22T09:30:20;94980.34;;;22.06;27.12
6423;BME280;3244;42.708;23.288;2023-02-22T09:32:50;94993.19;;;21.85;27.63
6423;BME280;3244;42.708;23.288;2023-02-22T09:35:18;94985.13;;;21.67;28.10
6423;BME280;3244;42.708;23.288;2023-02-22T09:37:52;94987.25;;;21.62;28.09
6423;BME280;3244;42.708;23.288;2023-02-22T09:40:19;94979.16;;;21.45;28.33
6423;BME280;3244;42.708;23.288;2023-02-22T09:43:04;94975.53;;;21.36;28.87
6423;BME280;3244;42.708;23.288;2023-02-22T09:45:39;94974.59;;;21.26;28.87
6423;BME280;3244;42.708;23.288;2023-02-22T09:48:14;94985.47;;;21.07;29.60
6423;BME280;3244;42.708;23.288;2023-02-22T09:50:45;94985.00;;;21.02;29.66
6423;BME280;3244;42.708;23.288;2023-02-22T09:53:19;94973.41;;;21.30;28.99
6423;BME280;3244;42.708;23.288;2023-02-22T09:55:57;94980.22;;;21.31;28.79
6423;BME280;3244;42.708;23.288;2023-02-22T09:58:30;94970.81;;;21.30;29.15
6423;BME280;3244;42.708;23.288;2023-02-22T10:01:07;94969.38;;;21.15;29.08
6423;BME280;3244;42.708;23.288;2023-02-22T10:03:47;94964.91;;;21.05;29.12
6423;BME280;3244;42.708;23.288;2023-02-22T10:06:19;94964.81;;;20.96;29.12
6423;BME280;3244;42.708;23.288;2023-02-22T10:08:46;94959.97;;;20.69;29.42
6423;BME280;3244;42.708;23.288;2023-02-22T10:11:27;94949.25;;;20.51;29.71
6423;BME280;3244;42.708;23.288;2023-02-22T10:14:04;94950.41;;;20.47;29.77
6423;BME280;3244;42.708;23.288;2023-02-22T10:16:37;94944.66;;;20.44;30.08
6423;BME280;3244;42.708;23.288;2023-02-22T10:19:25;94935.97;;;20.56;29.62
6423;BME280;3244;42.708;23.288;2023-02-22T10:22:09;94930.59;;;20.48;29.99
6423;BME280;3244;42.708;23.288;2023-02-22T10:24:50;94925.66;;;20.45;30.15
6423;BME280;3244;42.708;23.288;2023-02-22T10:27:21;94926.94;;;20.50;30.36
6423;BME280;3244;42.708;23.288;2023-02-22T10:29:52;94929.31;;;20.53;30.14
6423;BME280;3244;42.708;23.288;2023-02-22T10:32:25;94914.88;;;20.51;29.83
6423;BME280;3244;42.708;23.288;2023-02-22T10:34:53;94919.16;;;20.39;30.14
6423;BME280;3244;42.708;23.288;2023-02-22T10:37:26;94914.13;;;20.37;30.12
6423;BME280;3244;42.708;23.288;2023-02-22T10:39:57;94913.66;;;20.44;30.35
6423;BME280;3244;42.708;23.288;2023-02-22T10:42:29;94899.22;;;20.41;30.04
6423;BME280;3244;42.708;23.288;2023-02-22T10:44:56;94902.13;;;20.36;30.23
6423;BME280;3244;42.708;23.288;2023-02-22T10:47:23;94889.81;;;20.29;30.93
6423;BME280;3244;42.708;23.288;2023-02-22T10:49:53;94884.03;;;20.25;30.40
6423;BME280;3244;42.708;23.288;2023-02-22T10:52:25;94885.22;;;20.21;30.44
6423;BME280;3244;42.708;23.288;2023-02-22T10:54:55;94879.09;;;20.22;30.57
6423;BME280;3244;42.708;23.288;2023-02-22T10:57:25;94876.03;;;20.17;30.79
6423;BME280;3244;42.708;23.288;2023-02-22T10:59:52;94870.41;;;20.12;30.84
6423;BME280;3244;42.708;23.288;2023-02-22T11:02:23;94874.88;;;20.21;30.59
6423;BME280;3244;42.708;23.288;2023-02-22T11:04:54;94869.25;;;20.16;30.38
6423;BME280;3244;42.708;23.288;2023-02-22T11:07:25;94845.59;;;19.87;30.96
6423;BME280;3244;42.708;23.288;2023-02-22T11:09:54;94865.88;;;19.92;30.89
6423;BME280;3244;42.708;23.288;2023-02-22T11:12:27;94856.16;;;19.95;30.49
6423;BME280;3244;42.708;23.288;2023-02-22T11:14:55;94860.50;;;19.95;30.93
6423;BME280;3244;42.708;23.288;2023-02-22T11:17:30;94851.84;;;19.96;30.79
6423;BME280;3244;42.708;23.288;2023-02-22T11:19:57;94834.84;;;20.04;30.34
6423;BME280;3244;42.708;23.288;2023-02-22T11:22:28;94839.44;;;20.01;30.54
6423;BME280;3244;42.708;23.288;2023-02-22T11:24:58;94851.38;;;20.02;30.14
6423;BME280;3244;42.708;23.288;2023-02-22T11:27:30;94844.59;;;20.01;30.09
6423;BME280;3244;42.708;23.288;2023-02-22T11:30:09;94834.22;;;19.90;30.17
6423;BME280;3244;42.708;23.288;2023-02-22T11:32:43;94831.19;;;19.96;29.74
6423;BME280;3244;42.708;23.288;2023-02-22T11:35:33;94827.66;;;19.86;29.41
6423;BME280;3244;42.708;23.288;2023-02-22T11:38:16;94825.06;;;19.75;29.38
6423;BME280;3244;42.708;23.288;2023-02-22T11:40:46;94831.16;;;19.85;29.36
6423;BME280;3244;42.708;23.288;2023-02-22T11:43:29;94824.72;;;19.79;29.55
6423;BME280;3244;42.708;23.288;2023-02-22T11:45:59;94826.19;;;19.70;29.86
6423;BME280;3244;42.708;23.288;2023-02-22T11:48:28;94823.34;;;19.62;30.08
6423;BME280;3244;42.708;23.288;2023-02-22T11:51:03;94819.84;;;19.63;29.68
6423;BME280;3244;42.708;23.288;2023-02-22T11:53:44;94810.56;;;19.61;29.83
6423;BME280;3244;42.708;23.288;2023-02-22T11:56:16;94807.88;;;19.62;29.24
6423;BME280;3244;42.708;23.288;2023-02-22T11:58:48;94809.53;;;19.63;29.50
6423;BME280;3244;42.708;23.288;2023-02-22T12:01:23;94803.09;;;19.69;28.91
6423;BME280;3244;42.708;23.288;2023-02-22T12:04:33;94803.16;;;19.56;29.34
6423;BME280;3244;42.708;23.288;2023-02-22T12:07:15;94802.94;;;19.59;29.20
6423;BME280;3244;42.708;23.288;2023-02-22T12:09:49;94794.75;;;19.54;29.24
6423;BME280;3244;42.708;23.288;2023-02-22T12:12:22;94794.56;;;19.45;29.34
6423;BME280;3244;42.708;23.288;2023-02-22T12:14:54;94798.94;;;19.31;29.64
6423;BME280;3244;42.708;23.288;2023-02-22T12:17:43;94789.19;;;19.24;29.57
6423;BME280;3244;42.708;23.288;2023-02-22T12:20:16;94792.41;;;19.15;29.64
6423;BME280;3244;42.708;23.288;2023-02-22T12:22:54;94791.66;;;19.01;30.27
6423;BME280;3244;42.708;23.288;2023-02-22T12:25:25;94785.09;;;18.97;29.98
6423;BME280;3244;42.708;23.288;2023-02-22T12:27:56;94785.41;;;18.93;30.23
6423;BME280;3244;42.708;23.288;2023-02-22T12:30:26;94779.72;;;19.00;29.97
6423;BME280;3244;42.708;23.288;2023-02-22T12:32:57;94779.72;;;19.00;29.91
6423;BME280;3244;42.708;23.288;2023-02-22T12:35:26;94777.06;;;18.89;30.54
6423;BME280;3244;42.708;23.288;2023-02-22T12:38:02;94775.81;;;18.95;29.82
6423;BME280;3244;42.708;23.288;2023-02-22T12:40:36;94776.13;;;18.90;29.85
6423;BME280;3244;42.708;23.288;2023-02-22T12:43:11;94769.63;;;18.97;29.73
6423;BME280;3244;42.708;23.288;2023-02-22T12:45:44;94764.19;;;18.89;29.65
6423;BME280;3244;42.708;23.288;2023-02-22T12:48:25;94772.84;;;18.88;29.89
6423;BME280;3244;42.708;23.288;2023-02-22T12:50:58;94770.59;;;18.84;29.83
6423;BME280;3244;42.708;23.288;2023-02-22T12:53:31;94764.72;;;18.82;30.33
6423;BME280;3244;42.708;23.288;2023-02-22T12:56:14;94768.13;;;18.82;30.72
6423;BME280;3244;42.708;23.288;2023-02-22T12:58:48;94762.03;;;18.83;31.08
6423;BME280;3244;42.708;23.288;2023-02-22T13:01:20;94764.69;;;18.94;30.16
6423;BME280;3244;42.708;23.288;2023-02-22T13:03:49;94762.22;;;18.93;29.99
6423;BME280;3244;42.708;23.288;2023-02-22T13:06:27;94759.25;;;18.86;29.74
6423;BME280;3244;42.708;23.288;2023-02-22T13:09:07;94761.00;;;18.86;30.10
6423;BME280;3244;42.708;23.288;2023-02-22T13:11:42;94758.66;;;18.83;29.96
6423;BME280;3244;42.708;23.288;2023-02-22T13:14:29;94755.25;;;18.82;30.03
6423;BME280;3244;42.708;23.288;2023-02-22T13:17:05;94756.31;;;18.80;30.34
6423;BME280;3244;42.708;23.288;2023-02-22T13:19:40;94758.88;;;18.80;29.91
6423;BME280;3244;42.708;23.288;2023-02-22T13:22:14;94757.56;;;18.74;29.91
6423;BME280;3244;42.708;23.288;2023-02-22T13:24:53;94752.91;;;18.79;30.14
6423;BME280;3244;42.708;23.288;2023-02-22T13:27:30;94757.28;;;18.90;29.85
6423;BME280;3244;42.708;23.288;2023-02-22T13:30:00;94750.78;;;18.73;30.26
6423;BME280;3244;42.708;23.288;2023-02-22T13:32:37;94751.75;;;18.83;29.88